Time;durP1;ratioP1;P1;durP2;ratioP2;P2;SDS_P1;SDS_P2;PMS_P1;PMS_P2;Temp;Humidity;BMP_temperature;BMP_pressure;BME280_temperature;BME280_humidity;BME280_pressure;Samples;Min_cycle;Max_cycle;Signal;HPM_P1;HPM_P2
2021/11/03 00:00:47;;;;;;;3.60;3.30;;;4.90;99.90;;;;;;5051425;28;20367;-62
2021/11/03 00:03:14;;;;;;;4.40;3.60;;;4.80;99.90;;;;;;5051596;28;20029;-63
2021/11/03 00:05:45;;;;;;;4.13;3.67;;;4.90;99.90;;;;;;5051060;28;20387;-61
2021/11/03 00:08:16;;;;;;;3.65;3.22;;;4.90;99.90;;;;;;5051672;28;20033;-62
2021/11/03 00:10:43;;;;;;;4.63;3.13;;;4.90;99.90;;;;;;5053688;28;20037;-63
2021/11/03 00:13:11;;;;;;;5.53;3.17;;;5.30;99.90;;;;;;5054130;22;20041;-62
2021/11/03 00:15:37;;;;;;;4.47;3.88;;;5.00;99.90;;;;;;5034797;28;20029;-63
2021/11/03 00:18:03;;;;;;;10.07;4.25;;;5.00;99.90;;;;;;5036512;28;20036;-63
2021/11/03 00:20:30;;;;;;;5.05;3.53;;;5.00;99.90;;;;;;5035575;28;20028;-63
2021/11/03 00:22:55;;;;;;;5.78;3.40;;;5.10;99.90;;;;;;5035386;28;20032;-62
2021/11/03 00:25:21;;;;;;;4.25;3.20;;;5.10;99.90;;;;;;5034593;28;20034;-63
2021/11/03 00:27:47;;;;;;;7.40;3.30;;;5.10;99.90;;;;;;5035086;28;20119;-63
2021/11/03 00:30:12;;;;;;;5.40;3.30;;;5.10;99.90;;;;;;5035269;28;20025;-63
2021/11/03 00:32:38;;;;;;;3.47;3.08;;;5.10;99.90;;;;;;5035234;28;20087;-63
2021/11/03 00:35:04;;;;;;;4.85;3.17;;;5.10;99.90;;;;;;5034806;28;20087;-63
2021/11/03 00:37:29;;;;;;;4.18;2.97;;;5.20;99.90;;;;;;5034892;28;20483;-63
2021/11/03 00:39:55;;;;;;;6.68;2.95;;;5.10;99.90;;;;;;5035305;28;20033;-63
2021/11/03 00:42:21;;;;;;;3.20;2.90;;;5.20;99.90;;;;;;5035115;28;20032;-63
2021/11/03 00:44:46;;;;;;;5.88;2.97;;;5.20;99.90;;;;;;5034821;28;20104;-61
2021/11/03 00:47:12;;;;;;;2.78;2.58;;;5.20;99.90;;;;;;5035277;28;20475;-63
2021/11/03 00:49:38;;;;;;;3.53;2.88;;;5.20;99.90;;;;;;5034671;28;20029;-62
2021/11/03 00:52:04;;;;;;;3.88;2.85;;;5.10;99.90;;;;;;5035051;28;20491;-62
2021/11/03 00:54:30;;;;;;;5.80;3.75;;;5.20;99.90;;;;;;5034512;28;20083;-62
2021/11/03 00:56:55;;;;;;;6.25;3.33;;;5.30;99.90;;;;;;5034958;28;20418;-61
2021/11/03 00:59:21;;;;;;;6.07;4.65;;;5.30;99.90;;;;;;5035375;28;20031;-62
2021/11/03 01:01:47;;;;;;;7.03;5.60;;;5.30;99.90;;;;;;5034906;28;20022;-62
2021/11/03 01:04:13;;;;;;;6.22;4.97;;;5.30;99.90;;;;;;5035087;28;20060;-63
2021/11/03 01:06:39;;;;;;;6.82;5.00;;;5.30;99.90;;;;;;5034488;28;20025;-62
2021/11/03 01:09:05;;;;;;;4.72;4.10;;;5.40;99.90;;;;;;5035074;28;20452;-63
2021/11/03 01:11:31;;;;;;;5.07;4.03;;;5.30;99.90;;;;;;5035185;28;20031;-63
2021/11/03 01:13:57;;;;;;;4.35;3.95;;;5.40;99.90;;;;;;5014681;28;20133;-62
2021/11/03 01:16:23;;;;;;;4.75;3.78;;;5.40;99.90;;;;;;5013912;28;20097;-62
2021/11/03 01:18:53;;;;;;;6.32;4.20;;;5.50;99.90;;;;;;5015406;28;20504;-63
2021/11/03 01:21:22;;;;;;;6.90;3.60;;;5.50;99.90;;;;;;5013114;28;20030;-63
2021/11/03 01:23:48;;;;;;;5.18;3.85;;;5.40;99.90;;;;;;5014709;28;20030;-63
2021/11/03 01:26:14;;;;;;;4.63;3.63;;;5.50;99.90;;;;;;5013890;28;20037;-62
2021/11/03 01:28:39;;;;;;;6.43;4.35;;;5.40;99.90;;;;;;5014117;28;20026;-63
2021/11/03 01:31:05;;;;;;;6.28;3.80;;;5.40;99.90;;;;;;5014472;28;20022;-63
2021/11/03 01:33:30;;;;;;;5.40;3.60;;;5.40;99.90;;;;;;5014365;28;20536;-63
2021/11/03 01:35:56;;;;;;;4.00;3.60;;;5.40;99.90;;;;;;5013834;28;20075;-63
2021/11/03 01:38:22;;;;;;;9.10;4.75;;;5.40;99.90;;;;;;5014352;28;20076;-63
2021/11/03 01:40:49;;;;;;;5.78;3.88;;;5.50;99.90;;;;;;5014243;28;20026;-63
2021/11/03 01:43:33;;;;;;;6.00;4.38;;;5.40;99.90;;;;;;5042157;28;20683;-61
2021/11/03 01:46:29;;;;;;;4.32;3.92;;;5.40;99.90;;;;;;5053097;28;20040;-63
2021/11/03 01:49:05;;;;;;;4.70;3.97;;;5.50;99.90;;;;;;5053593;28;20025;-63
2021/11/03 01:51:43;;;;;;;6.47;4.55;;;5.40;99.90;;;;;;5053708;28;20049;-63
2021/11/03 01:54:13;;;;;;;4.65;4.25;;;5.50;99.90;;;;;;5053950;28;20090;-63
2021/11/03 01:56:40;;;;;;;4.28;3.95;;;5.40;99.90;;;;;;5052868;28;20036;-62
2021/11/03 01:59:22;;;;;;;7.80;4.68;;;5.30;99.90;;;;;;5053286;28;20078;-61
2021/11/03 02:01:49;;;;;;;6.18;4.30;;;5.40;99.90;;;;;;5053517;28;20036;-63
2021/11/03 02:04:15;;;;;;;5.38;4.85;;;5.40;99.90;;;;;;5053123;28;20067;-62
2021/11/03 02:06:42;;;;;;;6.38;5.32;;;5.40;99.90;;;;;;5053393;28;20063;-62
2021/11/03 02:09:08;;;;;;;7.80;6.38;;;5.60;99.90;;;;;;5053483;28;20379;-62
2021/11/03 02:11:34;;;;;;;10.77;6.32;;;5.40;99.90;;;;;;5053251;28;20512;-61
2021/11/03 02:14:03;;;;;;;9.23;6.85;;;5.40;99.90;;;;;;5053557;28;20029;-62
2021/11/03 02:16:30;;;;;;;8.77;6.93;;;5.40;99.90;;;;;;5053167;28;20501;-63
2021/11/03 02:18:56;;;;;;;9.05;7.28;;;5.30;99.90;;;;;;5053326;28;20033;-63
2021/11/03 02:21:34;;;;;;;7.93;7.05;;;5.50;99.90;;;;;;5053097;28;20033;-62
2021/11/03 02:24:25;;;;;;;7.07;6.10;;;5.40;99.90;;;;;;5053548;28;20087;-62
2021/11/03 02:26:52;;;;;;;7.55;6.75;;;5.40;99.90;;;;;;5052893;28;20107;-62
2021/11/03 02:29:21;;;;;;;9.55;7.10;;;5.40;99.90;;;;;;5053035;28;20029;-63
2021/11/03 02:31:54;;;;;;;9.48;6.80;;;5.40;99.90;;;;;;5052922;28;20075;-62
2021/11/03 02:34:26;;;;;;;9.05;6.80;;;5.50;99.90;;;;;;5055843;28;20084;-62
2021/11/03 02:37:02;;;;;;;8.05;6.57;;;5.60;99.90;;;;;;5057409;28;20017;-62
2021/11/03 02:39:40;;;;;;;9.88;7.00;;;5.60;99.90;;;;;;5057247;28;20029;-62
2021/11/03 02:42:07;;;;;;;7.32;6.63;;;5.60;99.90;;;;;;5057546;28;20119;-61
2021/11/03 02:44:37;;;;;;;8.55;6.47;;;5.60;99.90;;;;;;5055180;28;20612;-61
2021/11/03 02:47:04;;;;;;;8.05;6.85;;;5.60;99.90;;;;;;5053870;28;20036;-61
2021/11/03 02:49:31;;;;;;;7.95;7.15;;;5.50;99.90;;;;;;5052912;28;20536;-61
2021/11/03 02:51:57;;;;;;;9.68;7.05;;;5.60;99.90;;;;;;5052676;28;20029;-61
2021/11/03 02:54:23;;;;;;;7.35;6.43;;;5.70;99.90;;;;;;5052217;28;20036;-62
2021/11/03 02:56:54;;;;;;;8.63;6.22;;;5.50;99.90;;;;;;5052234;28;20056;-61
2021/11/03 02:59:27;;;;;;;9.85;6.53;;;5.60;99.90;;;;;;5052082;28;20487;-62
2021/11/03 03:01:56;;;;;;;8.15;6.32;;;5.60;99.90;;;;;;5052396;28;20040;-61
2021/11/03 03:04:28;;;;;;;10.50;7.20;;;5.60;99.90;;;;;;5051864;28;20467;-61
2021/11/03 03:06:54;;;;;;;8.63;6.20;;;5.50;99.90;;;;;;5052047;28;20029;-61
2021/11/03 03:09:20;;;;;;;7.53;5.75;;;5.50;99.90;;;;;;5052128;28;20430;-61
2021/11/03 03:11:50;;;;;;;10.02;7.22;;;5.50;99.90;;;;;;5049609;28;20029;-60
2021/11/03 03:14:17;;;;;;;9.07;6.22;;;5.70;99.90;;;;;;5031379;28;20152;-61
2021/11/03 03:16:43;;;;;;;6.72;6.05;;;5.70;99.90;;;;;;5031963;28;20480;-60
2021/11/03 03:19:10;;;;;;;7.60;6.80;;;5.70;99.90;;;;;;5031973;28;20040;-61
2021/11/03 03:21:36;;;;;;;6.93;6.22;;;5.70;99.90;;;;;;5032323;28;20030;-61
2021/11/03 03:24:04;;;;;;;10.50;7.00;;;5.70;99.90;;;;;;5031830;28;20029;-61
2021/11/03 03:26:30;;;;;;;10.65;7.03;;;5.70;99.90;;;;;;5031410;28;20415;-62
2021/11/03 03:28:57;;;;;;;8.75;6.90;;;5.80;99.90;;;;;;5031616;28;20029;-61
2021/11/03 03:31:24;;;;;;;6.82;6.15;;;5.80;99.90;;;;;;5031902;28;20055;-61
2021/11/03 03:33:51;;;;;;;10.40;6.80;;;5.80;99.90;;;;;;5032040;28;20097;-60
2021/11/03 03:36:18;;;;;;;9.80;8.07;;;5.80;99.90;;;;;;5031489;28;20398;-61
2021/11/03 03:38:44;;;;;;;7.47;6.53;;;5.90;99.90;;;;;;5031604;28;20483;-61
2021/11/03 03:41:11;;;;;;;7.13;6.43;;;5.80;99.90;;;;;;5031759;28;20072;-61
2021/11/03 03:43:37;;;;;;;7.20;5.88;;;6.20;99.90;;;;;;5047892;28;20052;-60
2021/11/03 03:46:03;;;;;;;10.82;7.00;;;5.80;99.90;;;;;;5050940;28;20021;-64
2021/11/03 03:48:29;;;;;;;9.05;7.05;;;5.80;99.90;;;;;;5051399;28;20029;-62
2021/11/03 03:50:54;;;;;;;7.97;6.65;;;5.80;99.90;;;;;;5051558;28;20017;-63
2021/11/03 03:53:21;;;;;;;7.53;6.30;;;5.80;99.90;;;;;;5051296;28;20028;-61
2021/11/03 03:55:48;;;;;;;7.53;6.47;;;5.80;99.90;;;;;;5050774;28;20029;-61
2021/11/03 03:58:14;;;;;;;8.30;6.10;;;5.90;99.90;;;;;;5051317;28;20028;-60
2021/11/03 04:00:40;;;;;;;7.93;6.68;;;5.90;99.90;;;;;;5051495;28;20059;-62
2021/11/03 04:03:06;;;;;;;7.63;5.88;;;5.90;99.90;;;;;;5051065;28;20061;-61
2021/11/03 04:05:33;;;;;;;10.30;7.45;;;5.90;99.90;;;;;;5050537;28;20479;-61
2021/11/03 04:07:59;;;;;;;8.40;6.28;;;6.00;99.90;;;;;;5051234;28;20120;-62
2021/11/03 04:10:24;;;;;;;8.18;6.35;;;6.00;99.90;;;;;;5051445;28;20100;-61
2021/11/03 04:12:50;;;;;;;7.03;6.20;;;6.00;99.90;;;;;;5050817;28;20029;-61
2021/11/03 04:15:17;;;;;;;12.32;7.70;;;6.00;99.90;;;;;;5050532;28;20026;-62
2021/11/03 04:17:42;;;;;;;12.80;7.95;;;6.00;99.90;;;;;;5051424;28;20095;-62
2021/11/03 04:20:11;;;;;;;11.52;7.20;;;6.00;99.90;;;;;;5052013;28;20032;-62
2021/11/03 04:22:37;;;;;;;10.57;7.53;;;5.80;99.90;;;;;;5051223;28;20064;-62
2021/11/03 04:25:06;;;;;;;9.10;6.88;;;5.90;99.90;;;;;;5050579;28;20078;-61
2021/11/03 04:27:32;;;;;;;11.90;7.85;;;6.00;99.90;;;;;;5049827;28;20114;-61
2021/11/03 04:29:57;;;;;;;11.90;7.60;;;6.00;99.90;;;;;;5051284;28;20143;-62
2021/11/03 04:32:23;;;;;;;9.65;7.05;;;6.00;99.90;;;;;;5051476;28;20140;-62
2021/11/03 04:34:49;;;;;;;14.77;8.80;;;6.00;99.90;;;;;;5050558;28;20021;-61
2021/11/03 04:37:15;;;;;;;11.57;7.78;;;6.10;99.90;;;;;;5050932;28;20036;-62
2021/11/03 04:39:41;;;;;;;11.23;8.05;;;6.10;99.90;;;;;;5051028;28;20196;-62
2021/11/03 04:42:07;;;;;;;11.77;7.50;;;6.00;99.90;;;;;;5051044;28;20037;-61
2021/11/03 04:44:33;;;;;;;12.40;7.65;;;6.00;99.90;;;;;;5050128;28;20448;-61
2021/11/03 04:46:59;;;;;;;10.90;7.90;;;6.00;99.90;;;;;;5050701;28;20108;-61
2021/11/03 04:49:25;;;;;;;8.40;7.03;;;6.10;99.90;;;;;;5050911;28;20057;-62
2021/11/03 04:51:51;;;;;;;7.78;6.32;;;6.10;99.90;;;;;;5051034;28;20021;-62
2021/11/03 04:54:16;;;;;;;8.00;7.20;;;6.20;99.90;;;;;;5051168;28;20124;-61
2021/11/03 04:56:42;;;;;;;9.63;7.32;;;6.20;99.90;;;;;;5054698;28;20028;-62
2021/11/03 04:59:09;;;;;;;10.43;9.10;;;6.20;99.90;;;;;;5054878;28;20028;-62
2021/11/03 05:01:35;;;;;;;10.35;8.20;;;6.20;99.90;;;;;;5054410;28;20498;-62
2021/11/03 05:04:00;;;;;;;9.27;8.15;;;6.30;99.90;;;;;;5054469;28;20025;-62
2021/11/03 05:06:28;;;;;;;10.73;8.57;;;6.10;99.90;;;;;;5053599;28;20387;-62
2021/11/03 05:08:55;;;;;;;9.25;8.27;;;6.00;99.90;;;;;;5054174;28;20033;-62
2021/11/03 05:11:21;;;;;;;12.52;8.35;;;6.10;99.90;;;;;;5054325;28;20028;-62
2021/11/03 05:13:48;;;;;;;11.05;7.78;;;6.10;99.90;;;;;;5053788;28;20580;-61
2021/11/03 05:16:20;;;;;;;8.63;7.43;;;6.10;99.90;;;;;;5053617;28;20060;-62
2021/11/03 05:18:45;;;;;;;9.50;7.65;;;6.10;99.90;;;;;;5054042;28;20061;-62
2021/11/03 05:21:12;;;;;;;8.70;7.65;;;6.10;99.90;;;;;;5054199;28;20048;-62
2021/11/03 05:23:39;;;;;;;8.18;7.10;;;6.10;99.90;;;;;;5053960;28;20050;-61
2021/11/03 05:26:04;;;;;;;9.50;7.57;;;6.10;99.90;;;;;;5053272;28;20029;-62
2021/11/03 05:28:31;;;;;;;7.30;6.55;;;6.20;99.90;;;;;;5053799;28;20539;-61
2021/11/03 05:30:57;;;;;;;9.57;6.40;;;6.20;99.90;;;;;;5036151;28;20049;-61
2021/11/03 05:33:22;;;;;;;7.82;7.03;;;6.20;99.90;;;;;;5053718;28;20064;-61
2021/11/03 05:35:48;;;;;;;11.02;8.45;;;6.20;99.90;;;;;;5045904;28;20557;-67
2021/11/03 05:38:14;;;;;;;9.70;7.00;;;6.30;99.90;;;;;;5024007;28;20029;-67
2021/11/03 05:40:41;;;;;;;9.30;6.78;;;6.30;99.90;;;;;;5032264;28;20025;-67
2021/11/03 05:43:06;;;;;;;7.55;6.75;;;6.30;99.90;;;;;;5028993;28;20030;-67
2021/11/03 05:45:33;;;;;;;13.70;8.52;;;6.30;99.90;;;;;;5032835;28;20383;-68
2021/11/03 05:47:59;;;;;;;11.05;8.55;;;6.30;99.90;;;;;;5033037;28;20108;-70
2021/11/03 05:50:31;;;;;;;15.45;10.32;;;6.40;99.90;;;;;;5033629;28;20188;-69
2021/11/03 05:52:58;;;;;;;11.20;8.77;;;6.40;99.90;;;;;;5037050;28;20028;-69
2021/11/03 05:55:23;;;;;;;9.75;8.35;;;6.30;99.90;;;;;;5043312;28;20025;-69
2021/11/03 05:57:49;;;;;;;11.10;9.07;;;6.30;99.90;;;;;;5052729;28;20052;-68
2021/11/03 06:00:23;;;;;;;9.52;8.13;;;6.30;99.90;;;;;;5049139;28;20474;-69
2021/11/03 06:02:48;;;;;;;9.63;8.35;;;6.20;99.90;;;;;;5033471;28;20033;-68
2021/11/03 06:05:15;;;;;;;9.93;7.80;;;6.20;99.90;;;;;;5032758;28;20029;-69
2021/11/03 06:07:52;;;;;;;9.43;7.57;;;6.20;99.90;;;;;;5032173;28;20033;-69
2021/11/03 06:10:25;;;;;;;8.10;7.07;;;6.20;99.90;;;;;;5033199;28;20022;-68
2021/11/03 06:19:35;;;;;;;7.80;7.00;;;6.20;99.90;;;;;;5067370;22;20043;-76
2021/11/03 06:22:00;;;;;;;7.40;5.72;;;6.20;99.90;;;;;;5057320;28;20092;-76
2021/11/03 06:24:28;;;;;;;8.90;6.38;;;6.30;99.90;;;;;;5050290;28;20017;-70
2021/11/03 06:26:54;;;;;;;7.43;5.03;;;6.30;99.90;;;;;;5044628;28;20378;-70
2021/11/03 06:29:19;;;;;;;5.43;4.80;;;6.40;99.90;;;;;;5051479;28;20021;-69
2021/11/03 06:31:45;;;;;;;8.77;5.57;;;6.40;99.90;;;;;;5052452;28;20032;-69
2021/11/03 06:34:11;;;;;;;6.75;4.85;;;6.50;99.90;;;;;;5050517;28;20021;-69
2021/11/03 06:36:37;;;;;;;5.00;4.55;;;6.40;99.90;;;;;;5051858;28;20475;-71
2021/11/03 06:39:05;;;;;;;6.55;4.25;;;6.50;99.90;;;;;;5052172;28;20025;-71
2021/11/03 06:41:31;;;;;;;7.20;4.10;;;6.60;99.90;;;;;;5052705;28;20525;-71
2021/11/03 06:43:57;;;;;;;8.30;4.03;;;6.70;99.90;;;;;;5052431;28;20032;-71
2021/11/03 06:46:23;;;;;;;8.27;4.13;;;6.80;99.90;;;;;;5051855;28;20478;-71
2021/11/03 06:48:48;;;;;;;5.78;3.47;;;6.80;99.90;;;;;;5051794;28;20471;-71
2021/11/03 06:51:14;;;;;;;6.35;3.67;;;6.80;99.90;;;;;;5050120;28;20028;-71
2021/11/03 06:53:40;;;;;;;3.42;3.13;;;6.90;99.90;;;;;;5048649;28;20107;-70
2021/11/03 06:56:07;;;;;;;3.30;3.00;;;7.00;99.90;;;;;;5051646;28;20013;-71
2021/11/03 06:58:33;;;;;;;3.28;2.80;;;6.90;99.90;;;;;;5050857;28;20036;-71
2021/11/03 07:01:00;;;;;;;3.58;2.78;;;7.00;99.90;;;;;;5045780;28;20029;-70
2021/11/03 07:03:27;;;;;;;2.85;2.63;;;7.00;99.90;;;;;;5051584;28;20032;-70
2021/11/03 07:05:53;;;;;;;4.50;3.33;;;7.10;99.90;;;;;;5051105;28;20494;-69
2021/11/03 07:08:21;;;;;;;4.70;3.55;;;7.30;99.90;;;;;;5051518;28;20116;-70
2021/11/03 07:10:49;;;;;;;9.55;3.80;;;7.30;99.90;;;;;;5052099;28;20039;-69
2021/11/03 07:13:17;;;;;;;4.32;3.85;;;7.20;99.90;;;;;;5051865;28;20021;-63
2021/11/03 07:15:43;;;;;;;4.93;3.63;;;7.10;99.90;;;;;;5051356;28;20043;-61
2021/11/03 07:18:09;;;;;;;5.03;3.38;;;7.20;99.90;;;;;;5043632;28;20132;-63
2021/11/03 07:20:36;;;;;;;5.95;3.08;;;7.20;99.90;;;;;;5053536;28;20037;-64
2021/11/03 07:23:03;;;;;;;2.97;2.67;;;7.20;99.90;;;;;;5031902;28;20032;-62
2021/11/03 07:25:28;;;;;;;4.68;2.88;;;7.20;99.90;;;;;;5031518;28;20033;-62
2021/11/03 07:27:57;;;;;;;4.75;3.75;;;7.40;99.90;;;;;;5031981;28;20024;-63
2021/11/03 07:30:28;;;;;;;5.88;3.65;;;7.30;99.90;;;;;;5033532;28;20030;-63
2021/11/03 07:32:54;;;;;;;5.60;4.27;;;7.30;99.90;;;;;;5032944;28;20421;-62
2021/11/03 07:35:19;;;;;;;8.80;4.75;;;7.30;99.90;;;;;;5032789;28;20310;-63
2021/11/03 07:37:45;;;;;;;61.05;31.75;;;7.40;99.90;;;;;;5034143;28;20025;-62
2021/11/03 07:40:14;;;;;;;12.30;8.38;;;7.40;99.90;;;;;;5035614;28;20025;-62
2021/11/03 07:42:40;;;;;;;10.52;6.00;;;7.50;99.90;;;;;;5036403;28;20076;-62
2021/11/03 07:45:06;;;;;;;6.82;6.07;;;7.60;99.90;;;;;;5031647;28;20107;-62
2021/11/03 07:47:33;;;;;;;4.95;4.45;;;7.60;99.90;;;;;;5033071;28;20114;-63
2021/11/03 07:49:59;;;;;;;8.80;4.22;;;7.70;99.90;;;;;;5046225;28;20609;-63
2021/11/03 07:52:24;;;;;;;90.95;42.45;;;7.70;99.90;;;;;;5072244;28;20100;-63
2021/11/03 07:54:50;;;;;;;33.80;16.35;;;7.80;99.90;;;;;;5070775;28;20033;-63
2021/11/03 07:57:16;;;;;;;12.90;6.95;;;7.80;99.90;;;;;;5071450;28;20063;-63
2021/11/03 07:59:42;;;;;;;4.68;3.90;;;7.90;99.90;;;;;;5071439;28;20032;-63
2021/11/03 08:02:09;;;;;;;4.03;3.60;;;7.80;99.90;;;;;;5071454;28;20030;-63
2021/11/03 08:04:35;;;;;;;4.10;3.47;;;7.80;99.90;;;;;;5070967;28;20503;-63
2021/11/03 08:07:00;;;;;;;4.97;4.22;;;7.80;99.90;;;;;;5071681;28;20108;-63
2021/11/03 08:09:27;;;;;;;4.72;3.25;;;7.80;99.90;;;;;;5071396;28;20029;-62
2021/11/03 08:11:58;;;;;;;5.07;3.80;;;7.80;99.90;;;;;;5071441;28;20481;-62
2021/11/03 08:14:27;;;;;;;3.85;3.33;;;7.80;99.90;;;;;;5071053;28;20041;-63
2021/11/03 08:17:21;;;;;;;4.30;3.28;;;7.70;99.90;;;;;;5071531;28;20028;-62
2021/11/03 08:19:55;;;;;;;6.85;5.45;;;7.70;99.90;;;;;;5070548;28;20043;-61
2021/11/03 08:22:24;;;;;;;10.10;6.55;;;7.70;99.90;;;;;;5071596;28;20479;-62
2021/11/03 08:24:55;;;;;;;22.42;18.60;;;7.70;99.90;;;;;;5070808;28;20031;-63
2021/11/03 08:27:22;;;;;;;8.75;7.20;;;7.70;99.90;;;;;;5071659;28;20033;-61
2021/11/03 08:29:49;;;;;;;7.00;5.63;;;7.80;99.90;;;;;;5072312;28;20025;-62
2021/11/03 08:32:19;;;;;;;8.00;6.43;;;7.70;99.90;;;;;;5075407;28;20042;-63
2021/11/03 08:34:46;;;;;;;7.53;6.38;;;7.70;99.90;;;;;;5059670;28;20029;-62
2021/11/03 08:37:18;;;;;;;6.35;5.65;;;7.90;99.90;;;;;;5055057;28;20033;-63
2021/11/03 08:39:47;;;;;;;12.18;6.43;;;8.10;99.90;;;;;;5055188;28;20033;-63
2021/11/03 08:42:13;;;;;;;8.15;5.22;;;7.90;99.90;;;;;;5055193;28;20033;-63
2021/11/03 08:44:40;;;;;;;9.07;5.30;;;7.90;99.90;;;;;;5054478;28;20028;-62
2021/11/03 08:47:10;;;;;;;8.10;6.10;;;7.90;99.90;;;;;;5055189;28;20375;-62
2021/11/03 08:49:36;;;;;;;9.35;6.43;;;7.70;99.90;;;;;;5058746;28;20104;-61
2021/11/03 08:52:04;;;;;;;7.35;6.43;;;7.70;99.90;;;;;;5074909;28;20025;-64
2021/11/03 08:54:32;;;;;;;9.43;7.13;;;7.50;99.90;;;;;;5072458;28;20052;-62
2021/11/03 08:56:58;;;;;;;10.02;8.52;;;7.70;99.90;;;;;;5074928;28;20073;-62
2021/11/03 08:59:24;;;;;;;9.13;7.60;;;7.70;99.90;;;;;;5073888;28;20059;-61
2021/11/03 09:01:50;;;;;;;8.55;7.65;;;7.90;99.90;;;;;;5054520;28;20061;-62
2021/11/03 09:04:16;;;;;;;13.27;7.03;;;8.30;99.90;;;;;;5054246;28;20518;-62
2021/11/03 09:06:41;;;;;;;11.35;7.93;;;8.40;99.90;;;;;;5053109;28;20532;-62
2021/11/03 09:09:07;;;;;;;9.05;7.30;;;8.40;99.90;;;;;;5053829;28;20055;-63
2021/11/03 09:11:34;;;;;;;11.65;7.72;;;8.50;99.90;;;;;;5053923;28;20033;-63
2021/11/03 09:14:00;;;;;;;7.90;6.85;;;8.40;99.90;;;;;;5054474;28;20090;-63
2021/11/03 09:16:27;;;;;;;8.57;7.10;;;8.30;99.90;;;;;;5052658;28;20482;-63
2021/11/03 09:18:53;;;;;;;8.75;7.28;;;8.30;99.90;;;;;;5054210;28;20028;-63
2021/11/03 09:21:21;;;;;;;9.02;6.00;;;8.30;99.90;;;;;;5072103;28;20090;-63
2021/11/03 09:23:47;;;;;;;6.95;5.93;;;8.60;99.90;;;;;;5074322;28;20446;-63
2021/11/03 09:26:14;;;;;;;6.85;5.47;;;8.30;99.90;;;;;;5073411;28;20056;-62
2021/11/03 09:28:40;;;;;;;7.32;5.40;;;8.20;99.90;;;;;;5074097;28;20585;-61
2021/11/03 09:31:09;;;;;;;7.20;6.05;;;8.20;99.90;;;;;;5074266;28;20028;-62
2021/11/03 09:33:37;;;;;;;6.05;5.25;;;8.50;99.90;;;;;;5073511;28;20075;-62
2021/11/03 09:36:08;;;;;;;5.28;4.78;;;8.60;99.90;;;;;;5073318;28;20035;-62
2021/11/03 09:38:34;;;;;;;5.85;5.18;;;8.70;99.90;;;;;;5073909;28;20592;-63
2021/11/03 09:41:24;;;;;;;7.93;5.07;;;8.60;99.90;;;;;;5072999;28;20150;-63
2021/11/03 09:43:57;;;;;;;5.75;5.15;;;8.60;99.90;;;;;;5073965;28;20021;-63
2021/11/03 09:46:35;;;;;;;7.93;5.72;;;8.60;99.90;;;;;;5073654;28;20036;-63
2021/11/03 09:49:19;;;;;;;5.85;4.85;;;8.80;99.90;;;;;;5073616;28;20494;-62
2021/11/03 09:51:47;;;;;;;7.25;5.45;;;8.90;99.90;;;;;;5073569;28;20032;-63
2021/11/03 09:54:36;;;;;;;6.55;4.70;;;8.90;99.90;;;;;;5073875;28;20024;-62
2021/11/03 09:57:07;;;;;;;7.18;5.50;;;8.90;99.90;;;;;;5073718;28;20020;-61
2021/11/03 09:59:36;;;;;;;10.82;5.32;;;8.70;99.90;;;;;;5073553;28;20036;-63
2021/11/03 10:02:33;;;;;;;6.45;4.70;;;8.70;99.90;;;;;;5073384;28;20025;-63
2021/11/03 10:05:05;;;;;;;6.82;5.22;;;8.70;99.90;;;;;;5072607;28;20409;-62
2021/11/03 10:07:54;;;;;;;7.47;5.57;;;8.70;99.90;;;;;;5073655;28;20445;-62
2021/11/03 10:10:32;;;;;;;5.22;4.60;;;8.60;99.90;;;;;;5073260;28;20115;-61
2021/11/03 10:13:23;;;;;;;7.70;4.93;;;8.60;99.90;;;;;;5073734;28;20104;-61
2021/11/03 10:16:02;;;;;;;10.20;4.38;;;8.70;99.90;;;;;;5072532;28;20036;-60
2021/11/03 10:18:54;;;;;;;7.32;4.65;;;8.80;99.90;;;;;;5073225;28;20036;-62
2021/11/03 10:21:34;;;;;;;5.63;4.13;;;8.90;99.90;;;;;;5067256;28;20049;-60
2021/11/03 10:24:01;;;;;;;4.63;3.97;;;9.00;99.90;;;;;;5073194;28;20482;-62
2021/11/03 10:26:45;;;;;;;3.90;2.90;;;9.10;99.90;;;;;;5073112;28;20051;-61
2021/11/03 10:29:19;;;;;;;3.60;3.30;;;9.20;99.90;;;;;;5072667;28;20028;-62
2021/11/03 10:32:15;;;;;;;4.30;3.88;;;9.20;99.90;;;;;;5072673;28;20016;-63
2021/11/03 10:34:45;;;;;;;5.85;4.00;;;9.20;99.90;;;;;;5072562;28;20138;-61
2021/11/03 10:37:16;;;;;;;9.38;3.67;;;9.40;99.90;;;;;;5072900;28;20035;-60
2021/11/03 10:39:53;;;;;;;4.53;4.17;;;9.40;99.90;;;;;;5072555;28;20047;-60
2021/11/03 10:42:28;;;;;;;6.63;3.97;;;9.50;99.90;;;;;;5072674;28;20024;-60
2021/11/03 10:45:33;;;;;;;7.90;4.97;;;9.60;99.90;;;;;;5071997;28;20105;-61
2021/11/03 10:48:39;;;;;;;4.25;3.95;;;9.70;99.90;;;;;;5065406;28;20517;-61
2021/11/03 10:51:18;;;;;;;6.32;4.20;;;9.60;99.90;;;;;;5013212;28;20543;-61
2021/11/03 10:53:52;;;;;;;5.15;3.42;;;9.50;99.90;;;;;;5028484;28;20535;-69
2021/11/03 10:56:29;;;;;;;4.82;3.55;;;9.50;99.90;;;;;;5055028;28;20039;-68
2021/11/03 10:59:15;;;;;;;5.22;3.50;;;9.50;99.90;;;;;;5071640;28;20024;-69
2021/11/03 11:01:45;;;;;;;3.63;3.28;;;9.60;99.90;;;;;;5071670;28;20051;-68
2021/11/03 11:04:29;;;;;;;3.40;3.10;;;9.70;99.90;;;;;;5071680;28;20024;-68
2021/11/03 11:07:02;;;;;;;5.97;3.20;;;9.80;99.90;;;;;;5071174;28;20100;-68
2021/11/03 11:09:39;;;;;;;3.40;2.70;;;9.80;99.90;;;;;;5070388;28;20020;-64
2021/11/03 11:12:26;;;;;;;2.95;2.10;;;9.70;99.90;;;;;;5071717;28;20556;-69
2021/11/03 11:14:58;;;;;;;2.65;2.35;;;9.80;99.90;;;;;;5071507;28;20016;-69
2021/11/03 11:17:36;;;;;;;3.10;2.28;;;9.80;99.90;;;;;;5070521;28;20121;-68
2021/11/03 11:20:19;;;;;;;3.50;2.70;;;9.90;99.90;;;;;;5069623;28;20094;-69
2021/11/03 11:23:19;;;;;;;2.70;2.33;;;9.90;99.90;;;;;;5071408;28;20074;-69
2021/11/03 11:26:22;;;;;;;3.70;2.70;;;9.90;99.90;;;;;;5058609;28;20462;-68
2021/11/03 11:28:54;;;;;;;4.70;3.72;;;10.00;99.90;;;;;;5071283;28;20035;-68
2021/11/03 11:31:36;;;;;;;7.07;4.47;;;10.20;99.90;;;;;;5072227;28;20020;-63
2021/11/03 11:34:24;;;;;;;4.18;3.60;;;10.10;99.90;;;;;;5032333;28;20044;-63
2021/11/03 11:37:03;;;;;;;7.75;4.38;;;10.20;99.90;;;;;;5033870;28;20017;-73
2021/11/03 11:39:41;;;;;;;8.65;4.25;;;10.30;99.90;;;;;;5051578;28;20036;-74
2021/11/03 11:42:25;;;;;;;4.95;3.88;;;10.20;99.90;;;;;;5071460;28;20020;-73
2021/11/03 11:45:11;;;;;;;3.60;3.30;;;10.70;99.90;;;;;;5070567;28;20024;-64
2021/11/03 11:47:42;;;;;;;5.60;3.38;;;10.70;99.90;;;;;;5071120;28;20052;-65
2021/11/03 11:50:46;;;;;;;5.88;3.60;;;10.70;99.90;;;;;;5069209;28;20024;-65
2021/11/03 11:53:38;;;;;;;5.43;3.85;;;10.70;99.90;;;;;;5070769;28;20473;-65
2021/11/03 11:56:12;;;;;;;4.75;3.35;;;10.20;99.90;;;;;;5054028;28;20040;-63
2021/11/03 11:58:44;;;;;;;8.30;4.50;;;10.20;99.90;;;;;;5071279;28;20037;-63
2021/11/03 12:01:18;;;;;;;7.72;5.13;;;10.20;99.90;;;;;;5071358;28;20044;-63
2021/11/03 12:03:46;;;;;;;9.93;5.07;;;10.10;99.90;;;;;;5070700;28;20440;-63
2021/11/03 12:06:12;;;;;;;12.45;6.28;;;10.10;99.90;;;;;;5069803;28;20386;-64
2021/11/03 12:09:20;;;;;;;12.73;7.65;;;10.20;99.90;;;;;;5071317;28;20028;-64
2021/11/03 12:11:55;;;;;;;17.27;8.27;;;10.20;99.90;;;;;;5060607;28;20104;-66
2021/11/03 12:14:49;;;;;;;9.95;6.60;;;10.20;99.90;;;;;;5070713;28;20048;-64
2021/11/03 12:17:21;;;;;;;10.65;6.60;;;10.20;99.90;;;;;;5071561;28;20078;-65
2021/11/03 12:19:57;;;;;;;7.38;5.25;;;10.10;99.90;;;;;;5070966;28;20043;-65
2021/11/03 12:22:29;;;;;;;8.48;5.15;;;10.30;99.90;;;;;;5072170;22;20060;-67
2021/11/03 12:25:21;;;;;;;9.47;5.17;;;10.30;99.90;;;;;;5024741;28;20017;-68
2021/11/03 12:27:48;;;;;;;5.63;4.40;;;10.40;99.90;;;;;;5020058;28;20470;-67
2021/11/03 12:30:20;;;;;;;12.35;5.18;;;10.30;99.90;;;;;;5051133;28;20471;-67
2021/11/03 12:32:45;;;;;;;5.55;3.90;;;10.50;99.90;;;;;;5051129;28;20021;-67
2021/11/03 12:35:20;;;;;;;4.45;3.30;;;10.50;99.90;;;;;;5050829;28;20027;-67
2021/11/03 12:37:58;;;;;;;4.60;3.17;;;10.50;99.90;;;;;;5051063;28;20021;-67
2021/11/03 12:40:36;;;;;;;3.95;2.92;;;10.50;99.90;;;;;;5050732;28;20494;-68
2021/11/03 12:43:20;;;;;;;6.05;2.60;;;10.40;99.90;;;;;;5051384;28;20494;-67
2021/11/03 12:46:07;;;;;;;1.92;1.15;;;10.40;99.90;;;;;;5051692;28;20112;-68
2021/11/03 12:48:36;;;;;;;0.93;0.93;;;10.30;99.90;;;;;;5034110;28;20086;-68
2021/11/03 12:51:14;;;;;;;1.85;1.20;;;10.10;99.90;;;;;;5051930;28;20655;-68
2021/11/03 12:53:47;;;;;;;1.58;0.70;;;9.90;99.90;;;;;;5034024;28;20025;-68
2021/11/03 12:56:15;;;;;;;1.00;1.00;;;9.70;99.90;;;;;;5031921;28;20029;-68
2021/11/03 12:58:45;;;;;;;1.80;0.80;;;9.80;99.90;;;;;;5014396;28;20376;-68
2021/11/03 13:01:33;;;;;;;1.48;0.80;;;9.80;99.90;;;;;;5022363;28;20388;-69
2021/11/03 13:04:03;;;;;;;1.23;0.70;;;9.80;99.90;;;;;;5012315;28;20111;-69
2021/11/03 13:06:35;;;;;;;0.75;0.70;;;9.80;99.90;;;;;;5011309;28;20484;-70
2021/11/03 13:09:02;;;;;;;1.00;0.70;;;9.70;99.90;;;;;;5011645;28;20384;-68
2021/11/03 13:11:36;;;;;;;1.27;0.90;;;9.80;99.90;;;;;;5011721;28;20435;-68
2021/11/03 13:14:05;;;;;;;1.40;0.82;;;9.80;99.90;;;;;;5012017;28;20768;-68
2021/11/03 13:16:46;;;;;;;2.55;1.10;;;9.80;99.90;;;;;;5012640;28;20496;-67
2021/11/03 13:19:32;;;;;;;1.25;1.00;;;9.70;99.90;;;;;;5015776;28;20104;-68